Machigasta, Argentina
Current Conditions -  °F | °C
As of 7:00 PM on Sunday 21 Dec 2014 (Local Time) from SANT Reporting Station
Overcast Overcast  
Wind Chill: 19°   Ceiling: 4500
Heat Index: 19°   Visibility: 6mi
Dew Point: 12°   Wind: 8mph
Humidity: 64%   Direction: 230°SW
Pressure: 29.88"   Gusts: NA
Location:  28.55°S, 66.8°W
Report Text: SANT 212200Z 23007KT 9999 BKN045 OVC10019/12 Q1012
Loading
Personal Weather Stations






























Interactive Weather Map New forecast layout! Learn more

10-Day Weather Forecast

Advertisements
Track Severe Weather on mobile